sensor_id;sensor_type;location;lat;lon;timestamp;P1;durP1;ratioP1;P2;durP2;ratioP2
44987;SDS011;35735;52.226;21.254;2023-03-24T00:00:28;10.90;;;6.00;;
44987;SDS011;35735;52.226;21.254;2023-03-24T00:05:29;9.38;;;5.70;;
44987;SDS011;35735;52.226;21.254;2023-03-24T00:10:30;6.32;;;4.53;;
44987;SDS011;35735;52.226;21.254;2023-03-24T00:15:31;5.53;;;4.10;;
44987;SDS011;35735;52.226;21.254;2023-03-24T00:20:31;5.30;;;3.62;;
44987;SDS011;35735;52.226;21.254;2023-03-24T00:25:32;7.50;;;4.00;;
44987;SDS011;35735;52.226;21.254;2023-03-24T00:30:33;5.25;;;3.75;;
44987;SDS011;35735;52.226;21.254;2023-03-24T00:35:34;8.32;;;4.80;;
44987;SDS011;35735;52.226;21.254;2023-03-24T00:40:34;11.65;;;6.10;;
44987;SDS011;35735;52.226;21.254;2023-03-24T00:45:35;10.60;;;5.18;;
44987;SDS011;35735;52.226;21.254;2023-03-24T00:50:35;9.68;;;5.65;;
44987;SDS011;35735;52.226;21.254;2023-03-24T00:55:36;9.35;;;5.82;;
44987;SDS011;35735;52.226;21.254;2023-03-24T01:00:36;9.00;;;6.70;;
44987;SDS011;35735;52.226;21.254;2023-03-24T01:05:37;9.07;;;6.22;;
44987;SDS011;35735;52.226;21.254;2023-03-24T01:10:38;9.75;;;6.55;;
44987;SDS011;35735;52.226;21.254;2023-03-24T01:15:39;11.38;;;5.93;;
44987;SDS011;35735;52.226;21.254;2023-03-24T01:20:40;11.57;;;5.85;;
44987;SDS011;35735;52.226;21.254;2023-03-24T01:25:43;8.90;;;5.30;;
44987;SDS011;35735;52.226;21.254;2023-03-24T01:30:43;10.63;;;5.18;;
44987;SDS011;35735;52.226;21.254;2023-03-24T01:35:44;9.77;;;5.37;;
44987;SDS011;35735;52.226;21.254;2023-03-24T01:40:45;8.35;;;5.40;;
44987;SDS011;35735;52.226;21.254;2023-03-24T01:45:50;9.48;;;5.32;;
44987;SDS011;35735;52.226;21.254;2023-03-24T01:51:03;7.62;;;5.43;;
44987;SDS011;35735;52.226;21.254;2023-03-24T01:56:13;10.82;;;5.30;;
44987;SDS011;35735;52.226;21.254;2023-03-24T02:01:14;6.90;;;5.10;;
44987;SDS011;35735;52.226;21.254;2023-03-24T02:06:15;6.57;;;4.85;;
44987;SDS011;35735;52.226;21.254;2023-03-24T02:11:18;8.55;;;5.10;;
44987;SDS011;35735;52.226;21.254;2023-03-24T02:16:23;8.05;;;5.30;;
44987;SDS011;35735;52.226;21.254;2023-03-24T02:33:22;7.12;;;4.90;;
44987;SDS011;35735;52.226;21.254;2023-03-24T02:50:05;7.12;;;4.90;;
44987;SDS011;35735;52.226;21.254;2023-03-24T02:55:42;7.80;;;4.78;;
44987;SDS011;35735;52.226;21.254;2023-03-24T03:00:53;8.75;;;5.12;;
44987;SDS011;35735;52.226;21.254;2023-03-24T03:06:02;6.68;;;4.95;;
44987;SDS011;35735;52.226;21.254;2023-03-24T03:11:13;8.68;;;5.25;;
44987;SDS011;35735;52.226;21.254;2023-03-24T03:16:20;10.02;;;5.47;;
44987;SDS011;35735;52.226;21.254;2023-03-24T03:21:36;8.95;;;5.28;;
44987;SDS011;35735;52.226;21.254;2023-03-24T03:26:42;6.70;;;4.80;;
44987;SDS011;35735;52.226;21.254;2023-03-24T03:31:49;9.13;;;5.20;;
44987;SDS011;35735;52.226;21.254;2023-03-24T03:37:05;7.97;;;5.03;;
44987;SDS011;35735;52.226;21.254;2023-03-24T03:42:17;6.75;;;4.60;;
44987;SDS011;35735;52.226;21.254;2023-03-24T03:47:18;8.05;;;4.78;;
44987;SDS011;35735;52.226;21.254;2023-03-24T03:52:19;10.32;;;5.10;;
44987;SDS011;35735;52.226;21.254;2023-03-24T03:57:20;10.73;;;5.18;;
44987;SDS011;35735;52.226;21.254;2023-03-24T04:02:27;9.10;;;5.40;;
44987;SDS011;35735;52.226;21.254;2023-03-24T04:13:30;11.57;;;4.62;;
44987;SDS011;35735;52.226;21.254;2023-03-24T04:18:50;10.52;;;5.25;;
44987;SDS011;35735;52.226;21.254;2023-03-24T04:29:28;10.25;;;5.35;;
44987;SDS011;35735;52.226;21.254;2023-03-24T04:34:48;11.05;;;5.62;;
44987;SDS011;35735;52.226;21.254;2023-03-24T04:39:58;7.43;;;5.32;;
44987;SDS011;35735;52.226;21.254;2023-03-24T04:45:06;11.60;;;5.70;;
44987;SDS011;35735;52.226;21.254;2023-03-24T04:50:08;15.13;;;6.37;;
44987;SDS011;35735;52.226;21.254;2023-03-24T04:55:35;13.00;;;6.75;;
44987;SDS011;35735;52.226;21.254;2023-03-24T05:00:45;18.42;;;6.75;;
44987;SDS011;35735;52.226;21.254;2023-03-24T05:05:46;10.07;;;6.12;;
44987;SDS011;35735;52.226;21.254;2023-03-24T05:10:48;12.77;;;6.50;;
44987;SDS011;35735;52.226;21.254;2023-03-24T05:15:51;11.38;;;7.15;;
44987;SDS011;35735;52.226;21.254;2023-03-24T05:20:53;19.90;;;7.57;;
44987;SDS011;35735;52.226;21.254;2023-03-24T05:25:53;12.48;;;6.87;;
44987;SDS011;35735;52.226;21.254;2023-03-24T05:30:54;19.67;;;7.87;;
44987;SDS011;35735;52.226;21.254;2023-03-24T05:35:54;30.42;;;8.63;;
44987;SDS011;35735;52.226;21.254;2023-03-24T05:40:58;16.15;;;8.75;;
44987;SDS011;35735;52.226;21.254;2023-03-24T05:46:00;16.40;;;8.50;;
44987;SDS011;35735;52.226;21.254;2023-03-24T05:51:00;17.70;;;9.25;;
44987;SDS011;35735;52.226;21.254;2023-03-24T05:56:01;22.17;;;12.15;;
44987;SDS011;35735;52.226;21.254;2023-03-24T06:01:05;26.02;;;13.95;;
44987;SDS011;35735;52.226;21.254;2023-03-24T06:06:08;22.90;;;12.95;;
44987;SDS011;35735;52.226;21.254;2023-03-24T06:11:10;20.12;;;12.52;;
44987;SDS011;35735;52.226;21.254;2023-03-24T06:16:11;20.35;;;11.63;;
44987;SDS011;35735;52.226;21.254;2023-03-24T06:21:11;19.98;;;10.02;;
44987;SDS011;35735;52.226;21.254;2023-03-24T06:26:12;14.85;;;9.73;;
44987;SDS011;35735;52.226;21.254;2023-03-24T06:31:14;12.73;;;9.00;;
44987;SDS011;35735;52.226;21.254;2023-03-24T06:36:14;17.25;;;9.20;;
44987;SDS011;35735;52.226;21.254;2023-03-24T06:41:15;15.90;;;9.32;;
44987;SDS011;35735;52.226;21.254;2023-03-24T06:46:15;16.30;;;9.10;;
44987;SDS011;35735;52.226;21.254;2023-03-24T06:51:16;16.45;;;9.75;;
44987;SDS011;35735;52.226;21.254;2023-03-24T06:56:18;15.07;;;9.43;;
44987;SDS011;35735;52.226;21.254;2023-03-24T07:01:18;15.30;;;9.32;;
44987;SDS011;35735;52.226;21.254;2023-03-24T07:06:19;13.85;;;8.95;;
44987;SDS011;35735;52.226;21.254;2023-03-24T07:11:21;16.52;;;10.35;;
44987;SDS011;35735;52.226;21.254;2023-03-24T07:16:21;16.65;;;10.18;;
44987;SDS011;35735;52.226;21.254;2023-03-24T07:21:22;19.08;;;10.18;;
44987;SDS011;35735;52.226;21.254;2023-03-24T07:26:22;15.95;;;9.77;;
44987;SDS011;35735;52.226;21.254;2023-03-24T07:31:23;14.80;;;10.27;;
44987;SDS011;35735;52.226;21.254;2023-03-24T07:36:23;16.58;;;9.48;;
44987;SDS011;35735;52.226;21.254;2023-03-24T07:41:24;13.50;;;9.98;;
44987;SDS011;35735;52.226;21.254;2023-03-24T07:46:26;20.50;;;14.23;;
44987;SDS011;35735;52.226;21.254;2023-03-24T07:51:26;19.40;;;13.38;;
44987;SDS011;35735;52.226;21.254;2023-03-24T07:56:27;16.83;;;11.43;;
44987;SDS011;35735;52.226;21.254;2023-03-24T08:01:28;14.82;;;11.07;;
44987;SDS011;35735;52.226;21.254;2023-03-24T08:06:29;14.90;;;10.32;;
44987;SDS011;35735;52.226;21.254;2023-03-24T08:11:29;15.52;;;10.55;;
44987;SDS011;35735;52.226;21.254;2023-03-24T08:16:30;16.42;;;10.57;;
44987;SDS011;35735;52.226;21.254;2023-03-24T08:21:30;22.90;;;11.23;;
44987;SDS011;35735;52.226;21.254;2023-03-24T08:26:31;32.95;;;17.58;;
44987;SDS011;35735;52.226;21.254;2023-03-24T08:31:35;74.35;;;39.75;;
44987;SDS011;35735;52.226;21.254;2023-03-24T08:36:36;34.58;;;21.95;;
44987;SDS011;35735;52.226;21.254;2023-03-24T08:41:37;23.60;;;15.90;;
44987;SDS011;35735;52.226;21.254;2023-03-24T08:46:38;20.17;;;14.13;;
44987;SDS011;35735;52.226;21.254;2023-03-24T08:51:39;20.60;;;12.57;;
44987;SDS011;35735;52.226;21.254;2023-03-24T08:56:39;20.80;;;13.60;;
44987;SDS011;35735;52.226;21.254;2023-03-24T09:01:40;22.55;;;15.20;;
44987;SDS011;35735;52.226;21.254;2023-03-24T09:06:40;99.32;;;48.67;;
44987;SDS011;35735;52.226;21.254;2023-03-24T09:11:41;62.17;;;34.85;;
44987;SDS011;35735;52.226;21.254;2023-03-24T09:16:41;45.80;;;30.15;;
44987;SDS011;35735;52.226;21.254;2023-03-24T09:21:45;23.30;;;16.05;;
44987;SDS011;35735;52.226;21.254;2023-03-24T09:26:47;23.27;;;17.10;;
44987;SDS011;35735;52.226;21.254;2023-03-24T09:31:48;19.17;;;14.68;;
44987;SDS011;35735;52.226;21.254;2023-03-24T09:36:49;23.08;;;15.38;;
44987;SDS011;35735;52.226;21.254;2023-03-24T09:41:50;20.37;;;14.38;;
44987;SDS011;35735;52.226;21.254;2023-03-24T09:46:56;23.17;;;14.30;;
44987;SDS011;35735;52.226;21.254;2023-03-24T09:52:29;80.65;;;41.37;;
44987;SDS011;35735;52.226;21.254;2023-03-24T10:02:36;15.98;;;10.77;;
44987;SDS011;35735;52.226;21.254;2023-03-24T10:07:49;12.32;;;9.07;;
44987;SDS011;35735;52.226;21.254;2023-03-24T10:13:00;15.00;;;10.43;;
44987;SDS011;35735;52.226;21.254;2023-03-24T10:18:15;16.77;;;10.40;;
44987;SDS011;35735;52.226;21.254;2023-03-24T10:28:50;11.38;;;8.10;;
44987;SDS011;35735;52.226;21.254;2023-03-24T10:34:03;15.60;;;11.77;;
44987;SDS011;35735;52.226;21.254;2023-03-24T10:39:04;22.95;;;14.25;;
44987;SDS011;35735;52.226;21.254;2023-03-24T10:44:05;14.20;;;9.52;;
44987;SDS011;35735;52.226;21.254;2023-03-24T10:49:07;17.15;;;11.23;;
44987;SDS011;35735;52.226;21.254;2023-03-24T10:59:21;13.17;;;8.43;;
44987;SDS011;35735;52.226;21.254;2023-03-24T11:04:51;13.77;;;9.23;;
44987;SDS011;35735;52.226;21.254;2023-03-24T11:09:59;21.73;;;14.20;;
44987;SDS011;35735;52.226;21.254;2023-03-24T11:20:37;32.35;;;19.87;;
44987;SDS011;35735;52.226;21.254;2023-03-24T11:25:40;26.27;;;17.73;;
44987;SDS011;35735;52.226;21.254;2023-03-24T11:31:07;15.10;;;11.35;;
44987;SDS011;35735;52.226;21.254;2023-03-24T11:41:43;9.55;;;7.55;;
44987;SDS011;35735;52.226;21.254;2023-03-24T11:47:12;10.90;;;7.03;;
44987;SDS011;35735;52.226;21.254;2023-03-24T11:52:24;14.35;;;9.80;;
44987;SDS011;35735;52.226;21.254;2023-03-24T11:57:50;10.35;;;7.55;;
44987;SDS011;35735;52.226;21.254;2023-03-24T12:08:39;8.30;;;6.50;;
44987;SDS011;35735;52.226;21.254;2023-03-24T12:14:12;9.18;;;6.20;;
44987;SDS011;35735;52.226;21.254;2023-03-24T12:24:56;11.40;;;6.82;;
44987;SDS011;35735;52.226;21.254;2023-03-24T12:30:19;7.82;;;5.93;;
44987;SDS011;35735;52.226;21.254;2023-03-24T12:35:52;9.77;;;7.43;;
44987;SDS011;35735;52.226;21.254;2023-03-24T12:41:20;9.30;;;7.50;;
44987;SDS011;35735;52.226;21.254;2023-03-24T12:52:11;9.68;;;6.95;;
44987;SDS011;35735;52.226;21.254;2023-03-24T12:57:20;12.50;;;8.27;;
44987;SDS011;35735;52.226;21.254;2023-03-24T13:07:51;10.13;;;6.87;;
44987;SDS011;35735;52.226;21.254;2023-03-24T13:13:03;8.45;;;5.50;;
44987;SDS011;35735;52.226;21.254;2023-03-24T13:18:28;11.25;;;5.05;;
44987;SDS011;35735;52.226;21.254;2023-03-24T13:39:55;7.10;;;4.68;;
44987;SDS011;35735;52.226;21.254;2023-03-24T13:44:59;6.10;;;4.43;;
44987;SDS011;35735;52.226;21.254;2023-03-24T13:50:04;8.07;;;4.43;;
44987;SDS011;35735;52.226;21.254;2023-03-24T13:55:27;9.52;;;5.55;;
44987;SDS011;35735;52.226;21.254;2023-03-24T14:00:28;5.68;;;3.55;;
44987;SDS011;35735;52.226;21.254;2023-03-24T14:10:59;10.48;;;5.10;;
44987;SDS011;35735;52.226;21.254;2023-03-24T14:16:00;6.47;;;3.42;;
44987;SDS011;35735;52.226;21.254;2023-03-24T14:21:52;4.97;;;3.45;;
44987;SDS011;35735;52.226;21.254;2023-03-24T14:32:35;6.82;;;2.95;;
44987;SDS011;35735;52.226;21.254;2023-03-24T14:37:46;4.30;;;3.12;;
44987;SDS011;35735;52.226;21.254;2023-03-24T14:42:52;6.12;;;3.20;;
44987;SDS011;35735;52.226;21.254;2023-03-24T14:47:58;6.28;;;3.10;;
44987;SDS011;35735;52.226;21.254;2023-03-24T14:53:02;5.40;;;3.00;;
44987;SDS011;35735;52.226;21.254;2023-03-24T14:58:09;5.53;;;3.00;;
44987;SDS011;35735;52.226;21.254;2023-03-24T15:08:51;8.95;;;3.10;;
44987;SDS011;35735;52.226;21.254;2023-03-24T15:13:53;7.15;;;2.83;;
44987;SDS011;35735;52.226;21.254;2023-03-24T15:19:07;4.70;;;2.87;;
44987;SDS011;35735;52.226;21.254;2023-03-24T15:29:23;4.53;;;2.37;;
44987;SDS011;35735;52.226;21.254;2023-03-24T15:39:39;8.10;;;2.92;;
44987;SDS011;35735;52.226;21.254;2023-03-24T15:44:40;7.55;;;2.60;;
44987;SDS011;35735;52.226;21.254;2023-03-24T15:49:51;8.80;;;3.00;;
44987;SDS011;35735;52.226;21.254;2023-03-24T15:54:59;5.80;;;2.80;;
44987;SDS011;35735;52.226;21.254;2023-03-24T16:00:24;34.85;;;5.40;;
44987;SDS011;35735;52.226;21.254;2023-03-24T16:05:29;4.37;;;2.87;;
44987;SDS011;35735;52.226;21.254;2023-03-24T16:10:35;5.93;;;3.53;;
44987;SDS011;35735;52.226;21.254;2023-03-24T16:15:39;3.92;;;3.10;;
44987;SDS011;35735;52.226;21.254;2023-03-24T16:20:42;4.68;;;3.30;;
44987;SDS011;35735;52.226;21.254;2023-03-24T16:25:43;5.12;;;3.00;;
44987;SDS011;35735;52.226;21.254;2023-03-24T16:30:43;5.57;;;3.67;;
44987;SDS011;35735;52.226;21.254;2023-03-24T16:35:49;4.80;;;3.50;;
44987;SDS011;35735;52.226;21.254;2023-03-24T16:40:52;4.85;;;3.42;;
44987;SDS011;35735;52.226;21.254;2023-03-24T16:45:55;6.28;;;3.67;;
44987;SDS011;35735;52.226;21.254;2023-03-24T16:50:55;6.32;;;3.67;;
44987;SDS011;35735;52.226;21.254;2023-03-24T16:55:56;5.87;;;4.20;;
44987;SDS011;35735;52.226;21.254;2023-03-24T17:00:57;5.05;;;3.80;;
44987;SDS011;35735;52.226;21.254;2023-03-24T17:05:58;5.60;;;4.30;;
44987;SDS011;35735;52.226;21.254;2023-03-24T17:10:58;5.05;;;4.22;;
44987;SDS011;35735;52.226;21.254;2023-03-24T17:15:59;7.37;;;4.40;;
44987;SDS011;35735;52.226;21.254;2023-03-24T17:21:00;5.55;;;4.45;;
44987;SDS011;35735;52.226;21.254;2023-03-24T17:26:00;6.32;;;4.30;;
44987;SDS011;35735;52.226;21.254;2023-03-24T17:31:01;5.53;;;4.37;;
44987;SDS011;35735;52.226;21.254;2023-03-24T17:36:01;6.53;;;4.50;;
44987;SDS011;35735;52.226;21.254;2023-03-24T17:41:02;7.45;;;5.57;;
44987;SDS011;35735;52.226;21.254;2023-03-24T17:46:04;6.53;;;5.47;;
44987;SDS011;35735;52.226;21.254;2023-03-24T17:51:05;9.90;;;6.60;;
44987;SDS011;35735;52.226;21.254;2023-03-24T17:56:05;8.40;;;6.62;;
44987;SDS011;35735;52.226;21.254;2023-03-24T18:01:06;12.90;;;6.43;;
44987;SDS011;35735;52.226;21.254;2023-03-24T18:06:07;8.98;;;7.03;;
44987;SDS011;35735;52.226;21.254;2023-03-24T18:11:12;11.30;;;7.28;;
44987;SDS011;35735;52.226;21.254;2023-03-24T18:16:14;9.63;;;7.87;;
44987;SDS011;35735;52.226;21.254;2023-03-24T18:21:15;9.15;;;7.62;;
44987;SDS011;35735;52.226;21.254;2023-03-24T18:26:16;9.45;;;7.85;;
44987;SDS011;35735;52.226;21.254;2023-03-24T18:31:18;10.75;;;8.38;;
44987;SDS011;35735;52.226;21.254;2023-03-24T18:36:21;10.40;;;7.72;;
44987;SDS011;35735;52.226;21.254;2023-03-24T18:41:22;10.05;;;7.95;;
44987;SDS011;35735;52.226;21.254;2023-03-24T18:46:23;9.45;;;7.50;;
44987;SDS011;35735;52.226;21.254;2023-03-24T18:51:24;9.15;;;7.45;;
44987;SDS011;35735;52.226;21.254;2023-03-24T18:56:25;10.73;;;7.43;;
44987;SDS011;35735;52.226;21.254;2023-03-24T19:01:26;10.52;;;7.05;;
44987;SDS011;35735;52.226;21.254;2023-03-24T19:06:27;11.30;;;8.30;;
44987;SDS011;35735;52.226;21.254;2023-03-24T19:11:27;9.65;;;7.50;;
44987;SDS011;35735;52.226;21.254;2023-03-24T19:16:28;11.25;;;8.25;;
44987;SDS011;35735;52.226;21.254;2023-03-24T19:21:29;12.40;;;7.70;;
44987;SDS011;35735;52.226;21.254;2023-03-24T19:26:29;11.27;;;7.53;;
44987;SDS011;35735;52.226;21.254;2023-03-24T19:31:30;11.80;;;7.87;;
44987;SDS011;35735;52.226;21.254;2023-03-24T19:36:30;11.30;;;8.27;;
44987;SDS011;35735;52.226;21.254;2023-03-24T19:41:31;11.55;;;8.13;;
44987;SDS011;35735;52.226;21.254;2023-03-24T19:46:31;26.05;;;15.68;;
44987;SDS011;35735;52.226;21.254;2023-03-24T19:51:32;12.40;;;8.90;;
44987;SDS011;35735;52.226;21.254;2023-03-24T19:56:32;12.93;;;9.00;;
44987;SDS011;35735;52.226;21.254;2023-03-24T20:01:33;11.85;;;9.27;;
44987;SDS011;35735;52.226;21.254;2023-03-24T20:06:34;11.52;;;9.07;;
44987;SDS011;35735;52.226;21.254;2023-03-24T20:11:34;10.02;;;7.62;;
44987;SDS011;35735;52.226;21.254;2023-03-24T20:16:35;9.23;;;8.18;;
44987;SDS011;35735;52.226;21.254;2023-03-24T20:21:38;10.02;;;8.02;;
44987;SDS011;35735;52.226;21.254;2023-03-24T20:26:39;10.10;;;8.00;;
44987;SDS011;35735;52.226;21.254;2023-03-24T20:31:40;10.90;;;8.15;;
44987;SDS011;35735;52.226;21.254;2023-03-24T20:36:40;13.18;;;8.27;;
44987;SDS011;35735;52.226;21.254;2023-03-24T20:41:41;10.32;;;8.18;;
44987;SDS011;35735;52.226;21.254;2023-03-24T20:46:41;9.90;;;8.55;;
44987;SDS011;35735;52.226;21.254;2023-03-24T20:51:42;11.82;;;9.65;;
44987;SDS011;35735;52.226;21.254;2023-03-24T20:56:44;13.68;;;10.07;;
44987;SDS011;35735;52.226;21.254;2023-03-24T21:01:45;11.80;;;10.30;;
44987;SDS011;35735;52.226;21.254;2023-03-24T21:06:46;12.32;;;10.27;;
44987;SDS011;35735;52.226;21.254;2023-03-24T21:11:46;15.27;;;10.38;;
44987;SDS011;35735;52.226;21.254;2023-03-24T21:16:47;12.02;;;9.98;;
44987;SDS011;35735;52.226;21.254;2023-03-24T21:21:47;18.12;;;10.18;;
44987;SDS011;35735;52.226;21.254;2023-03-24T21:26:49;12.75;;;9.57;;
44987;SDS011;35735;52.226;21.254;2023-03-24T21:31:50;11.52;;;9.38;;
44987;SDS011;35735;52.226;21.254;2023-03-24T21:36:50;12.63;;;10.30;;
44987;SDS011;35735;52.226;21.254;2023-03-24T21:41:51;11.05;;;9.88;;
44987;SDS011;35735;52.226;21.254;2023-03-24T21:46:52;9.60;;;8.25;;
44987;SDS011;35735;52.226;21.254;2023-03-24T21:51:52;10.25;;;8.70;;
44987;SDS011;35735;52.226;21.254;2023-03-24T21:56:53;7.28;;;6.00;;
44987;SDS011;35735;52.226;21.254;2023-03-24T22:01:53;8.10;;;5.85;;
44987;SDS011;35735;52.226;21.254;2023-03-24T22:06:54;10.45;;;6.25;;
44987;SDS011;35735;52.226;21.254;2023-03-24T22:11:54;7.75;;;5.95;;
44987;SDS011;35735;52.226;21.254;2023-03-24T22:16:55;10.82;;;6.03;;
44987;SDS011;35735;52.226;21.254;2023-03-24T22:21:56;7.75;;;6.07;;
44987;SDS011;35735;52.226;21.254;2023-03-24T22:26:56;6.65;;;5.00;;
44987;SDS011;35735;52.226;21.254;2023-03-24T22:31:57;7.35;;;5.03;;
44987;SDS011;35735;52.226;21.254;2023-03-24T22:36:57;7.50;;;5.53;;
44987;SDS011;35735;52.226;21.254;2023-03-24T22:41:58;7.85;;;4.90;;
44987;SDS011;35735;52.226;21.254;2023-03-24T22:47:00;6.32;;;4.80;;
44987;SDS011;35735;52.226;21.254;2023-03-24T22:52:01;6.65;;;4.90;;
44987;SDS011;35735;52.226;21.254;2023-03-24T22:57:02;7.18;;;5.22;;
44987;SDS011;35735;52.226;21.254;2023-03-24T23:02:03;7.00;;;5.30;;
44987;SDS011;35735;52.226;21.254;2023-03-24T23:07:04;6.85;;;5.32;;
44987;SDS011;35735;52.226;21.254;2023-03-24T23:12:05;7.95;;;5.95;;
44987;SDS011;35735;52.226;21.254;2023-03-24T23:17:05;6.87;;;5.10;;
44987;SDS011;35735;52.226;21.254;2023-03-24T23:22:06;7.35;;;5.50;;
44987;SDS011;35735;52.226;21.254;2023-03-24T23:27:07;7.35;;;5.10;;
44987;SDS011;35735;52.226;21.254;2023-03-24T23:32:07;7.10;;;4.95;;
44987;SDS011;35735;52.226;21.254;2023-03-24T23:37:08;5.95;;;5.20;;
44987;SDS011;35735;52.226;21.254;2023-03-24T23:42:09;8.27;;;5.80;;
44987;SDS011;35735;52.226;21.254;2023-03-24T23:47:09;9.63;;;5.70;;
44987;SDS011;35735;52.226;21.254;2023-03-24T23:52:10;9.27;;;6.70;;
44987;SDS011;35735;52.226;21.254;2023-03-24T23:57:10;7.87;;;5.97;;
